Time;durP1;ratioP1;P1;durP2;ratioP2;P2;SDS_P1;SDS_P2;PMS_P1;PMS_P2;Temp;Humidity;BMP_temperature;BMP_pressure;BME280_temperature;BME280_humidity;BME280_pressure;Samples;Min_cycle;Max_cycle;Signal;HPM_P1;HPM_P2
2022/05/16 00:02:06;;;;;;;12.60;6.25;;;13.40;99.90;;;;;;5025813;28;20828;-75
2022/05/16 00:04:32;;;;;;;13.05;6.38;;;;;;;;;;5033405;28;20443;-74
2022/05/16 00:06:58;;;;;;;12.17;5.60;;;13.40;99.90;;;;;;5049736;28;20572;-75
2022/05/16 00:09:24;;;;;;;12.83;5.97;;;;;;;;;;5048658;28;20509;-75
2022/05/16 00:11:50;;;;;;;10.20;5.37;;;;;;;;;;5043533;28;20615;-73
2022/05/16 00:14:16;;;;;;;10.57;5.60;;;13.30;99.90;;;;;;5030820;28;20602;-72
2022/05/16 00:16:42;;;;;;;11.73;5.80;;;;;;;;;;5033152;28;20970;-74
2022/05/16 00:19:08;;;;;;;11.50;5.63;;;;;;;;;;5042898;28;20425;-74
2022/05/16 00:21:34;;;;;;;12.57;5.60;;;;;;;;;;5037849;28;20908;-74
2022/05/16 00:24:01;;;;;;;10.45;5.47;;;;;;;;;;5049723;28;20439;-74
2022/05/16 00:26:27;;;;;;;13.38;6.00;;;;;;;;;;5042583;28;20514;-74
2022/05/16 00:28:53;;;;;;;11.43;5.57;;;;;;;;;;5021931;28;20417;-74
2022/05/16 00:31:19;;;;;;;10.27;5.32;;;;;;;;;;5030173;28;20493;-74
2022/05/16 00:33:45;;;;;;;11.60;5.40;;;;;;;;;;5050006;28;20487;-74
2022/05/16 00:36:11;;;;;;;10.52;4.97;;;;;;;;;;5032223;28;20515;-74
2022/05/16 00:38:37;;;;;;;12.40;5.40;;;13.30;99.90;;;;;;5046798;28;20489;-75
2022/05/16 00:41:04;;;;;;;11.27;5.90;;;13.30;99.90;;;;;;5029019;28;21121;-75
2022/05/16 00:43:48;;;;;;;12.45;5.32;;;13.60;99.90;;;;;;5047416;28;20940;-75
2022/05/16 00:46:16;;;;;;;11.27;5.60;;;13.30;99.90;;;;;;5032917;28;20564;-75
2022/05/16 00:48:42;;;;;;;12.48;5.10;;;;;;;;;;5048424;28;20429;-75
2022/05/16 00:51:10;;;;;;;9.20;4.95;;;;;;;;;;5045573;28;20429;-75
2022/05/16 00:53:36;;;;;;;12.98;5.32;;;;;;;;;;5030142;28;20407;-74
2022/05/16 00:56:02;;;;;;;11.20;5.38;;;13.00;99.90;;;;;;5037825;28;20425;-75
2022/05/16 00:58:28;;;;;;;8.63;4.93;;;;;;;;;;5049449;28;20769;-75
2022/05/16 01:00:54;;;;;;;8.80;5.28;;;;;;;;;;5044059;28;20428;-75
2022/05/16 01:06:07;;;;;;;12.60;5.43;;;;;;;;;;5048632;28;20484;-75
2022/05/16 01:08:35;;;;;;;8.75;5.20;;;;;;;;;;5030551;28;20416;-75
2022/05/16 01:11:10;;;;;;;10.52;5.40;;;13.00;99.90;;;;;;5044274;28;20436;-76
2022/05/16 01:13:36;;;;;;;11.40;5.50;;;;;;;;;;5047267;28;20417;-75
2022/05/16 01:16:03;;;;;;;10.77;4.88;;;12.80;99.90;;;;;;5047074;28;20429;-75
2022/05/16 01:18:29;;;;;;;9.45;5.15;;;;;;;;;;5053958;28;20413;-73
2022/05/16 01:21:27;;;;;;;11.02;5.30;;;13.00;99.90;;;;;;5050042;28;20482;-75
2022/05/16 01:23:56;;;;;;;9.02;4.93;;;;;;;;;;5052805;28;20432;-76
2022/05/16 01:26:24;;;;;;;7.63;4.73;;;12.90;99.90;;;;;;5050849;28;20421;-75
2022/05/16 01:28:51;;;;;;;9.95;5.35;;;;;;;;;;5052109;28;20413;-75
2022/05/16 01:31:17;;;;;;;11.50;5.00;;;12.90;99.90;;;;;;5048984;28;20502;-75
2022/05/16 01:33:43;;;;;;;9.47;4.60;;;13.00;99.90;;;;;;5018248;28;20427;-75
2022/05/16 01:36:09;;;;;;;11.20;5.33;;;;;;;;;;5036869;28;20441;-75
2022/05/16 01:38:35;;;;;;;10.00;4.87;;;12.90;99.90;;;;;;5051552;28;20767;-76
2022/05/16 01:41:03;;;;;;;11.02;5.35;;;12.70;99.90;;;;;;5015481;28;20426;-76
2022/05/16 01:43:34;;;;;;;10.60;5.15;;;12.70;99.90;;;;;;5050386;28;20449;-76
2022/05/16 01:46:01;;;;;;;9.75;5.30;;;;;;;;;;5050828;28;20488;-75
2022/05/16 01:48:30;;;;;;;10.43;4.93;;;;;;;;;;5052294;28;20428;-75
2022/05/16 01:51:00;;;;;;;9.57;5.10;;;;;;;;;;5050780;28;20428;-75
2022/05/16 01:53:27;;;;;;;8.93;4.75;;;12.40;99.90;;;;;;5034119;28;20429;-75
2022/05/16 01:55:53;;;;;;;12.23;5.57;;;12.60;99.90;;;;;;5050249;28;20435;-75
2022/05/16 01:58:20;;;;;;;9.68;5.00;;;;;;;;;;5035453;28;20758;-75
2022/05/16 02:00:46;;;;;;;9.43;5.13;;;;;;;;;;5050287;28;20479;-75
2022/05/16 02:03:12;;;;;;;9.77;5.00;;;;;;;;;;5049165;28;20424;-75
2022/05/16 02:05:38;;;;;;;7.90;4.93;;;;;;;;;;5053666;28;20404;-75
2022/05/16 02:08:05;;;;;;;10.27;5.13;;;;;;;;;;5047853;28;20429;-75
2022/05/16 02:10:31;;;;;;;9.63;5.10;;;;;;;;;;5050856;28;20417;-75
2022/05/16 02:12:57;;;;;;;9.50;5.03;;;12.40;99.90;;;;;;5047550;28;20775;-75
2022/05/16 02:15:24;;;;;;;9.70;4.78;;;;;;;;;;5050359;28;20775;-76
2022/05/16 02:17:51;;;;;;;9.23;4.82;;;;;;;;;;5048071;28;20458;-75
2022/05/16 02:20:17;;;;;;;8.75;4.55;;;;;;;;;;5050198;28;20417;-75
2022/05/16 02:25:28;;;;;;;8.60;4.55;;;;;;;;;;5047473;28;20421;-74
2022/05/16 02:27:54;;;;;;;13.80;4.77;;;12.50;99.90;;;;;;5041994;28;20429;-74
2022/05/16 02:30:22;;;;;;;9.23;4.57;;;;;;;;;;5044745;28;21003;-74
2022/05/16 02:32:48;;;;;;;8.00;4.22;;;12.50;99.90;;;;;;5051821;28;20483;-74
2022/05/16 02:35:15;;;;;;;9.50;4.55;;;;;;;;;;5050084;28;20429;-74
2022/05/16 02:37:41;;;;;;;7.47;4.10;;;;;;;;;;5031788;28;20469;-74
2022/05/16 02:40:09;;;;;;;8.25;4.20;;;;;;;;;;5031271;28;20856;-74
2022/05/16 02:42:36;;;;;;;11.60;4.15;;;;;;;;;;5047618;28;21715;-75
2022/05/16 02:45:04;;;;;;;8.70;3.92;;;12.40;99.90;;;;;;5046610;28;20417;-74
2022/05/16 02:47:30;;;;;;;7.57;4.10;;;;;;;;;;5051852;28;20401;-74
2022/05/16 02:49:56;;;;;;;9.30;4.20;;;;;;;;;;5048469;28;20425;-74
2022/05/16 02:52:22;;;;;;;8.38;4.00;;;;;;;;;;5032042;28;20421;-75
2022/05/16 02:54:48;;;;;;;9.73;4.28;;;;;;;;;;5034197;28;20555;-73
2022/05/16 02:57:14;;;;;;;7.38;3.63;;;;;;;;;;5035141;28;20401;-75
2022/05/16 02:59:40;;;;;;;8.80;4.07;;;12.30;99.90;;;;;;5032654;28;20425;-75
2022/05/16 03:02:07;;;;;;;6.93;4.03;;;;;;;;;;5015669;28;20421;-75
2022/05/16 03:04:34;;;;;;;9.45;4.00;;;12.50;99.90;;;;;;5051729;28;20417;-75
2022/05/16 03:07:00;;;;;;;9.02;4.07;;;;;;;;;;5050691;28;20425;-75
2022/05/16 03:09:27;;;;;;;7.57;3.80;;;;;;;;;;5032670;28;20429;-75
2022/05/16 03:11:53;;;;;;;8.80;3.97;;;12.40;99.90;;;;;;5031040;28;20525;-75
2022/05/16 03:14:20;;;;;;;7.07;3.22;;;12.10;99.90;;;;;;5048563;28;20425;-75
2022/05/16 03:16:46;;;;;;;6.17;3.37;;;;;;;;;;5051943;28;20750;-75
2022/05/16 03:19:12;;;;;;;7.90;3.35;;;;;;;;;;5048584;28;20424;-74
2022/05/16 03:21:39;;;;;;;7.85;3.40;;;12.30;99.90;;;;;;5047808;28;20837;-75
2022/05/16 03:24:05;;;;;;;7.37;3.77;;;;;;;;;;5034841;28;20516;-76
2022/05/16 03:26:32;;;;;;;7.70;3.80;;;;;;;;;;5032574;28;20420;-75
2022/05/16 03:28:57;;;;;;;6.97;3.42;;;12.00;99.90;;;;;;5050279;28;20460;-75
2022/05/16 03:31:23;;;;;;;8.55;3.53;;;12.20;99.90;;;;;;5040462;28;20454;-75
2022/05/16 03:33:50;;;;;;;9.02;3.38;;;;;;;;;;5047663;28;20421;-74
2022/05/16 03:36:16;;;;;;;6.88;3.30;;;;;;;;;;5050290;28;20762;-74
2022/05/16 03:41:26;;;;;;;8.45;3.40;;;11.80;99.90;;;;;;5038881;28;20430;-74
2022/05/16 03:43:52;;;;;;;7.65;3.45;;;;;;;;;;5042584;28;20780;-74
2022/05/16 03:46:18;;;;;;;10.03;3.30;;;;;;;;;;5049677;28;20420;-74
2022/05/16 03:48:44;;;;;;;7.10;3.10;;;;;;;;;;5032095;28;20992;-73
2022/05/16 03:51:12;;;;;;;6.30;3.10;;;12.00;99.90;;;;;;5031701;28;20421;-75
2022/05/16 03:53:48;;;;;;;6.80;3.20;;;;;;;;;;5048783;28;20432;-74
2022/05/16 03:56:15;;;;;;;12.63;3.50;;;;;;;;;;5033749;28;20410;-74
2022/05/16 03:58:41;;;;;;;7.50;3.10;;;12.10;99.90;;;;;;5046535;28;20570;-74
2022/05/16 04:01:08;;;;;;;7.10;3.25;;;;;;;;;;5046741;28;21047;-74
2022/05/16 04:03:34;;;;;;;9.02;3.00;;;12.00;99.90;;;;;;5031771;28;20974;-74
2022/05/16 04:06:01;;;;;;;7.93;3.08;;;;;;;;;;5034057;28;20397;-74
2022/05/16 04:08:28;;;;;;;6.80;2.95;;;;;;;;;;5048206;28;20422;-74
2022/05/16 04:11:01;;;;;;;7.15;3.08;;;11.80;99.90;;;;;;5047167;28;20428;-74
2022/05/16 04:13:28;;;;;;;8.40;3.30;;;12.20;99.90;;;;;;5045650;28;20417;-74
2022/05/16 04:15:54;;;;;;;6.75;3.20;;;;;;;;;;5033560;28;20405;-74
2022/05/16 04:18:20;;;;;;;6.60;3.20;;;;;;;;;;5030677;28;20430;-73
2022/05/16 04:20:47;;;;;;;6.68;3.03;;;;;;;;;;5046356;28;20475;-73
2022/05/16 04:23:13;;;;;;;6.33;3.20;;;;;;;;;;5032125;28;20429;-74
2022/05/16 04:25:39;;;;;;;6.47;3.17;;;;;;;;;;5047667;28;20406;-74
2022/05/16 04:28:06;;;;;;;7.27;2.97;;;13.20;99.90;;;;;;5049137;28;20506;-74
2022/05/16 04:30:32;;;;;;;10.23;3.53;;;12.20;99.90;;;;;;5029877;28;20452;-74
2022/05/16 04:32:57;;;;;;;5.87;2.73;;;12.40;99.90;;;;;;5050034;28;20405;-75
2022/05/16 04:35:24;;;;;;;8.13;3.10;;;;;;;;;;5012016;28;20423;-75
2022/05/16 04:37:50;;;;;;;7.88;3.45;;;;;;;;;;5046959;28;20421;-75
2022/05/16 04:40:16;;;;;;;6.82;3.10;;;;;;;;;;5046225;28;20432;-75
2022/05/16 04:42:42;;;;;;;8.27;3.50;;;;;;;;;;5048063;28;20471;-75
2022/05/16 04:45:18;;;;;;;6.80;3.13;;;;;;;;;;5032317;28;20427;-75
2022/05/16 04:47:45;;;;;;;7.93;2.95;;;;;;;;;;5034577;28;20475;-74
2022/05/16 04:50:14;;;;;;;8.32;3.13;;;12.30;99.90;;;;;;5050089;28;20433;-75
2022/05/16 04:52:40;;;;;;;5.40;2.78;;;;;;;;;;5033552;28;20436;-76
2022/05/16 04:55:07;;;;;;;6.70;2.90;;;12.20;99.90;;;;;;5054336;28;20409;-76
2022/05/16 04:57:33;;;;;;;6.90;3.00;;;;;;;;;;5053642;28;20412;-76
2022/05/16 04:59:59;;;;;;;7.53;2.92;;;;;;;;;;5033193;28;20416;-76
2022/05/16 05:02:25;;;;;;;7.53;3.17;;;;;;;;;;5052847;28;20511;-75
2022/05/16 05:04:51;;;;;;;7.40;3.00;;;12.20;99.90;;;;;;5052550;28;20425;-75
2022/05/16 05:07:17;;;;;;;6.75;3.20;;;;;;;;;;5037256;28;20432;-75
2022/05/16 05:15:14;;;;;;;5.97;3.00;;;12.70;99.90;;;;;;5052284;28;20421;-75
2022/05/16 05:17:41;;;;;;;7.53;3.40;;;;;;;;;;5052604;28;20413;-76
2022/05/16 05:20:13;;;;;;;7.75;3.20;;;12.80;99.90;;;;;;5035048;28;20425;-76
2022/05/16 05:22:40;;;;;;;8.60;3.70;;;;;;;;;;5037139;28;20453;-75
2022/05/16 05:25:07;;;;;;;7.43;3.28;;;;;;;;;;5051980;28;20417;-74
2022/05/16 05:27:33;;;;;;;9.40;3.08;;;;;;;;;;5051239;28;20425;-74
2022/05/16 05:29:58;;;;;;;7.65;3.20;;;12.90;99.90;;;;;;5050888;28;20421;-75
2022/05/16 05:32:24;;;;;;;8.93;3.80;;;;;;;;;;5036480;28;20424;-76
2022/05/16 05:34:51;;;;;;;6.07;3.23;;;;;;;;;;5053660;28;20405;-76
2022/05/16 05:37:16;;;;;;;7.68;3.47;;;13.00;99.90;;;;;;5034460;28;20447;-76
2022/05/16 05:39:42;;;;;;;8.27;3.33;;;;;;;;;;5049831;28;20424;-77
2022/05/16 05:42:09;;;;;;;9.02;3.50;;;;;;;;;;5050141;28;20437;-76
2022/05/16 05:44:34;;;;;;;5.97;3.08;;;13.00;99.90;;;;;;5036902;28;20424;-76
2022/05/16 05:47:01;;;;;;;6.13;3.40;;;;;;;;;;5029031;28;20414;-76
2022/05/16 05:49:27;;;;;;;7.55;3.55;;;;;;;;;;5039390;28;20504;-75
2022/05/16 05:51:53;;;;;;;8.43;3.50;;;;;;;;;;5029282;28;20603;-75
2022/05/16 05:54:19;;;;;;;8.07;3.80;;;13.40;99.90;;;;;;5048411;28;20440;-75
2022/05/16 05:56:44;;;;;;;7.25;3.33;;;13.60;99.90;;;;;;5037049;28;20409;-75
2022/05/16 05:59:10;;;;;;;6.75;3.60;;;13.70;99.90;;;;;;5051969;28;20462;-76
2022/05/16 06:01:36;;;;;;;6.87;3.30;;;;;;;;;;5033151;28;20508;-75
2022/05/16 06:04:02;;;;;;;6.68;3.33;;;14.00;99.90;;;;;;5035109;28;20417;-75
2022/05/16 06:06:28;;;;;;;7.60;3.30;;;;;;;;;;5053857;28;20460;-76
2022/05/16 06:08:54;;;;;;;8.43;3.58;;;14.30;99.90;;;;;;5051798;28;20431;-75
2022/05/16 06:11:21;;;;;;;8.00;3.43;;;;;;;;;;5042634;28;20417;-75
2022/05/16 06:13:47;;;;;;;10.30;3.80;;;14.30;99.90;;;;;;5051376;28;20983;-74
2022/05/16 06:16:13;;;;;;;9.63;3.80;;;;;;;;;;5030536;28;20454;-75
2022/05/16 06:18:39;;;;;;;6.75;3.40;;;14.60;99.90;;;;;;5045744;28;20421;-75
2022/05/16 06:21:05;;;;;;;10.95;3.50;;;14.90;99.90;;;;;;5029860;28;20417;-75
2022/05/16 06:23:30;;;;;;;7.80;3.55;;;14.70;99.90;;;;;;5034230;28;20429;-75
2022/05/16 06:25:57;;;;;;;8.18;3.50;;;14.90;99.90;;;;;;5034062;28;20420;-75
2022/05/16 06:28:25;;;;;;;9.43;3.60;;;14.80;99.90;;;;;;5053072;28;20436;-75
2022/05/16 06:30:52;;;;;;;9.07;3.70;;;15.20;99.90;;;;;;5050913;28;20507;-75
2022/05/16 06:33:20;;;;;;;6.88;3.45;;;15.60;99.90;;;;;;5027167;28;20422;-74
2022/05/16 06:35:47;;;;;;;9.53;3.63;;;15.50;99.90;;;;;;5039410;28;20444;-74
2022/05/16 06:38:22;;;;;;;8.52;3.90;;;15.50;99.90;;;;;;5049727;28;20516;-74
2022/05/16 06:40:48;;;;;;;9.75;3.60;;;;;;;;;;5048666;28;20433;-73
2022/05/16 06:43:15;;;;;;;9.93;3.60;;;15.70;99.90;;;;;;5046122;28;20812;-75
2022/05/16 06:45:42;;;;;;;7.10;3.55;;;;;;;;;;5035189;28;20413;-75
2022/05/16 06:48:09;;;;;;;8.07;3.35;;;16.20;99.90;;;;;;5051348;28;20421;-76
2022/05/16 06:50:36;;;;;;;9.32;3.00;;;16.20;99.90;;;;;;5048346;28;21209;-76
2022/05/16 06:53:03;;;;;;;10.85;3.55;;;16.20;99.90;;;;;;5027876;28;20911;-75
2022/05/16 06:55:29;;;;;;;9.32;3.67;;;16.30;99.90;;;;;;5047143;28;20420;-75
2022/05/16 06:57:55;;;;;;;11.00;4.00;;;16.20;99.90;;;;;;5037911;28;20425;-75
2022/05/16 07:00:21;;;;;;;7.57;3.50;;;16.00;99.90;;;;;;5046828;28;21070;-75
2022/05/16 07:02:47;;;;;;;9.25;3.80;;;16.30;99.90;;;;;;5046388;28;20433;-74
2022/05/16 07:05:13;;;;;;;8.45;3.40;;;16.60;99.90;;;;;;5044997;28;20431;-76
2022/05/16 07:07:39;;;;;;;9.43;3.83;;;16.50;99.90;;;;;;5051459;28;20413;-73
2022/05/16 07:10:06;;;;;;;9.13;3.80;;;16.90;99.90;;;;;;5030963;28;20427;-74
2022/05/16 07:12:32;;;;;;;8.48;3.67;;;16.80;99.90;;;;;;5049681;28;20426;-75
2022/05/16 07:14:59;;;;;;;10.90;3.70;;;17.00;99.90;;;;;;5050398;28;20574;-75
2022/05/16 07:17:24;;;;;;;8.23;3.50;;;17.20;99.90;;;;;;5034126;28;20457;-74
2022/05/16 07:19:51;;;;;;;10.00;3.77;;;17.30;99.90;;;;;;5027439;28;20454;-74
2022/05/16 07:22:22;;;;;;;10.50;3.63;;;17.30;99.90;;;;;;5043533;28;20433;-74
2022/05/16 07:24:48;;;;;;;7.85;3.80;;;17.60;99.90;;;;;;5048881;28;20492;-74
2022/05/16 07:29:59;;;;;;;9.55;3.30;;;18.10;99.90;;;;;;5049024;28;20418;-75
2022/05/16 07:32:43;;;;;;;10.43;3.70;;;17.80;99.90;;;;;;5047779;28;20436;-75
2022/05/16 07:35:17;;;;;;;9.52;3.72;;;18.10;99.90;;;;;;5048460;28;20417;-75
2022/05/16 07:37:44;;;;;;;8.82;3.90;;;18.20;99.90;;;;;;5026006;28;20421;-74
2022/05/16 07:40:12;;;;;;;8.80;3.67;;;18.30;99.90;;;;;;5046341;28;20436;-74
2022/05/16 07:42:38;;;;;;;8.60;3.40;;;18.30;99.90;;;;;;5031819;28;20429;-74
2022/05/16 07:45:07;;;;;;;9.03;3.50;;;18.00;99.90;;;;;;5030941;28;20433;-73
2022/05/16 07:47:33;;;;;;;11.40;3.75;;;18.30;99.90;;;;;;5032268;28;20516;-75
2022/05/16 07:50:00;;;;;;;12.75;4.30;;;18.50;99.90;;;;;;5049233;28;20440;-75
2022/05/16 07:52:28;;;;;;;10.32;3.55;;;18.60;99.90;;;;;;5023242;28;20431;-74
2022/05/16 07:54:54;;;;;;;9.50;3.50;;;18.50;99.90;;;;;;5024927;28;20475;-73
2022/05/16 07:57:20;;;;;;;9.27;3.50;;;18.40;99.90;;;;;;5049346;28;20409;-76
2022/05/16 07:59:46;;;;;;;9.77;3.90;;;18.90;99.90;;;;;;5046012;28;20512;-73
2022/05/16 08:02:13;;;;;;;10.90;3.47;;;18.70;99.90;;;;;;5047702;28;20817;-76
2022/05/16 08:04:39;;;;;;;9.15;3.13;;;19.30;99.90;;;;;;5040347;28;20456;-76
2022/05/16 08:07:06;;;;;;;10.20;3.00;;;19.20;99.90;;;;;;5050031;28;20503;-76
2022/05/16 08:12:29;;;;;;;10.43;3.85;;;19.90;99.90;;;;;;5045428;28;20425;-76
2022/05/16 08:14:55;;;;;;;12.32;3.42;;;19.90;99.90;;;;;;5031794;28;20496;-76
2022/05/16 08:17:22;;;;;;;8.80;3.53;;;19.60;99.90;;;;;;5050403;28;20516;-76
2022/05/16 08:19:48;;;;;;;9.23;3.72;;;19.80;99.90;;;;;;5051705;28;20421;-74
2022/05/16 08:22:15;;;;;;;8.05;3.35;;;20.00;99.90;;;;;;5046311;28;20433;-75
2022/05/16 08:24:41;;;;;;;11.45;3.50;;;20.20;99.90;;;;;;5052276;28;20397;-76
2022/05/16 08:27:07;;;;;;;9.27;3.40;;;20.20;99.90;;;;;;5050760;28;20488;-77
2022/05/16 08:29:33;;;;;;;11.43;3.78;;;20.70;99.90;;;;;;5038745;28;20424;-76
2022/05/16 08:32:01;;;;;;;9.18;3.30;;;20.50;99.90;;;;;;5050976;28;20417;-76
2022/05/16 08:34:28;;;;;;;10.43;3.50;;;20.40;99.90;;;;;;5051123;28;20425;-76
2022/05/16 08:39:53;;;;;;;10.67;3.50;;;20.50;99.90;;;;;;5048514;28;20598;-76
2022/05/16 08:42:39;;;;;;;10.18;3.60;;;21.30;99.90;;;;;;5033437;28;20434;-76
2022/05/16 08:45:15;;;;;;;7.97;3.10;;;21.40;99.90;;;;;;5033211;28;20459;-77
2022/05/16 08:48:10;;;;;;;9.57;3.00;;;21.40;99.90;;;;;;5050187;28;20468;-76
2022/05/16 08:50:48;;;;;;;7.85;3.58;;;21.70;99.90;;;;;;5013607;28;21111;-77
2022/05/16 08:53:17;;;;;;;10.05;3.28;;;21.30;99.90;;;;;;5041374;28;20429;-75
2022/05/16 08:55:52;;;;;;;7.95;3.40;;;21.50;99.90;;;;;;5047375;28;20492;-77
2022/05/16 08:58:23;;;;;;;8.57;3.60;;;21.50;99.90;;;;;;5049212;28;20445;-76
2022/05/16 09:01:11;;;;;;;12.85;3.50;;;21.40;99.90;;;;;;5046918;28;20424;-76
2022/05/16 09:03:51;;;;;;;10.93;3.27;;;21.30;99.90;;;;;;5051394;28;20513;-77
2022/05/16 09:06:23;;;;;;;9.40;3.47;;;21.40;99.90;;;;;;5051865;28;20408;-76
2022/05/16 09:09:11;;;;;;;9.53;3.50;;;21.80;99.90;;;;;;5045853;28;20418;-76
2022/05/16 09:11:46;;;;;;;9.00;3.08;;;21.40;99.90;;;;;;5043181;28;20427;-77
2022/05/16 09:14:28;;;;;;;7.93;3.10;;;21.60;99.90;;;;;;5060179;28;20446;-76
2022/05/16 09:17:00;;;;;;;9.87;3.30;;;21.20;99.90;;;;;;5032584;28;20417;-77
2022/05/16 09:19:45;;;;;;;9.57;3.30;;;21.50;99.90;;;;;;5041140;28;20475;-77
2022/05/16 09:22:17;;;;;;;9.33;3.40;;;21.40;99.90;;;;;;5032823;28;21055;-76
2022/05/16 09:25:01;;;;;;;8.63;3.00;;;22.00;99.90;;;;;;5048386;28;20754;-75
2022/05/16 09:30:27;;;;;;;8.30;3.10;;;21.80;99.90;;;;;;4994225;28;20423;-75
2022/05/16 09:33:00;;;;;;;9.63;3.35;;;22.10;99.90;;;;;;5044654;28;20905;-75
2022/05/16 09:35:51;;;;;;;7.65;3.17;;;22.40;99.90;;;;;;5052953;28;20413;-75
2022/05/16 09:38:18;;;;;;;13.03;3.30;;;22.30;99.90;;;;;;5048527;28;20505;-78
2022/05/16 09:40:59;;;;;;;8.90;3.28;;;22.60;99.90;;;;;;5053759;28;20417;-76
2022/05/16 09:43:29;;;;;;;7.70;3.20;;;23.00;99.90;;;;;;5052441;28;20924;-74
2022/05/16 09:46:24;;;;;;;7.97;3.00;;;23.10;99.90;;;;;;5052048;28;20500;-75
2022/05/16 09:49:23;;;;;;;7.05;2.90;;;23.80;99.90;;;;;;5053960;28;20417;-74
2022/05/16 09:51:57;;;;;;;9.25;3.17;;;23.90;99.90;;;;;;5035382;28;20421;-75
2022/05/16 09:54:28;;;;;;;10.18;3.33;;;23.90;99.90;;;;;;5052507;28;20425;-75
2022/05/16 09:57:03;;;;;;;7.68;3.00;;;24.10;99.90;;;;;;5041487;28;20530;-76
2022/05/16 09:59:39;;;;;;;8.55;3.28;;;24.20;99.90;;;;;;5051718;28;20421;-76
2022/05/16 10:02:36;;;;;;;13.88;3.33;;;24.40;99.90;;;;;;5033624;28;20417;-77
2022/05/16 10:05:23;;;;;;;11.00;3.47;;;24.80;99.90;;;;;;5054831;28;20892;-78
2022/05/16 10:08:14;;;;;;;8.90;3.28;;;24.60;99.90;;;;;;5051983;28;20921;-78
2022/05/16 10:10:42;;;;;;;11.70;3.35;;;24.70;99.90;;;;;;5051542;28;20931;-78
2022/05/16 10:13:08;;;;;;;12.02;3.65;;;24.70;99.90;;;;;;5047341;28;20416;-78
2022/05/16 10:15:36;;;;;;;8.80;3.40;;;24.50;99.90;;;;;;5034539;28;20498;-78
2022/05/16 10:18:06;;;;;;;10.85;3.65;;;24.60;99.90;;;;;;5050134;28;20952;-78
2022/05/16 10:20:39;;;;;;;8.50;3.20;;;24.40;99.90;;;;;;5049622;28;20434;-76
2022/05/16 10:23:19;;;;;;;8.60;3.13;;;24.40;99.90;;;;;;5047912;28;20435;-77
2022/05/16 10:25:48;;;;;;;8.32;3.00;;;24.40;99.90;;;;;;5044370;28;20769;-76
2022/05/16 10:28:24;;;;;;;9.95;3.42;;;24.70;99.90;;;;;;5051508;28;20421;-81
2022/05/16 10:33:39;;;;;;;10.67;3.50;;;24.80;99.90;;;;;;5029924;28;20463;-79
2022/05/16 10:36:10;;;;;;;9.55;3.28;;;24.80;99.90;;;;;;5036046;28;20429;-79
2022/05/16 10:38:56;;;;;;;7.80;2.97;;;24.70;99.90;;;;;;5052114;28;20429;-77
2022/05/16 10:41:50;;;;;;;9.52;3.35;;;24.80;99.90;;;;;;5051577;28;20482;-77
2022/05/16 10:44:41;;;;;;;8.98;3.13;;;24.60;99.90;;;;;;4995529;28;20421;-77
2022/05/16 10:47:31;;;;;;;8.32;3.15;;;24.50;99.90;;;;;;5051923;28;20416;-77
2022/05/16 10:50:06;;;;;;;9.00;3.50;;;24.30;99.90;;;;;;5052210;28;20405;-77
2022/05/16 10:52:38;;;;;;;7.47;3.50;;;24.20;99.90;;;;;;5029461;28;20448;-77
2022/05/16 10:55:04;;;;;;;11.07;3.83;;;24.40;99.90;;;;;;5051391;28;20421;-77
2022/05/16 10:58:22;;;;;;;12.63;3.30;;;24.40;99.90;;;;;;5054010;28;20410;-77
2022/05/16 11:01:12;;;;;;;11.05;3.42;;;24.20;99.90;;;;;;4956945;28;20427;-78
2022/05/16 11:03:56;;;;;;;9.48;3.15;;;24.50;99.90;;;;;;5051983;28;20444;-77
2022/05/16 11:06:34;;;;;;;10.63;3.58;;;23.80;99.90;;;;;;5052932;28;20492;-78
2022/05/16 11:09:16;;;;;;;11.90;3.47;;;24.40;99.90;;;;;;5052039;28;20413;-77
2022/05/16 11:11:52;;;;;;;11.32;3.40;;;24.50;99.90;;;;;;5031917;28;20477;-77
2022/05/16 11:14:30;;;;;;;11.80;3.75;;;24.40;99.90;;;;;;5047347;28;20418;-78
2022/05/16 11:17:06;;;;;;;9.07;3.42;;;24.60;99.90;;;;;;5051260;28;20431;-78
2022/05/16 11:19:48;;;;;;;11.63;3.85;;;24.20;99.90;;;;;;5050571;28;20454;-78
2022/05/16 11:22:34;;;;;;;9.70;3.70;;;24.40;99.90;;;;;;5050249;28;20437;-78
2022/05/16 11:25:09;;;;;;;10.50;4.00;;;24.40;99.90;;;;;;5053217;28;20968;-77
2022/05/16 11:28:00;;;;;;;13.83;3.83;;;24.30;99.90;;;;;;5035420;28;20408;-78
2022/05/16 11:30:46;;;;;;;11.93;3.70;;;24.20;99.90;;;;;;5034418;28;20426;-77
2022/05/16 11:33:23;;;;;;;8.32;3.60;;;24.30;99.90;;;;;;5032325;28;20426;-78
2022/05/16 11:35:53;;;;;;;12.68;4.07;;;24.40;99.90;;;;;;5049835;28;20782;-77
2022/05/16 11:38:33;;;;;;;12.20;4.22;;;24.10;99.90;;;;;;5051946;28;20488;-77
2022/05/16 11:41:36;;;;;;;13.60;3.92;;;23.70;99.90;;;;;;5041718;28;20433;-78
2022/05/16 11:44:23;;;;;;;12.83;4.20;;;24.30;99.90;;;;;;5034179;28;20514;-80
2022/05/16 11:47:01;;;;;;;10.32;3.90;;;24.30;99.90;;;;;;5032814;28;20914;-79
2022/05/16 11:49:38;;;;;;;12.10;4.38;;;24.50;99.90;;;;;;5023064;28;20840;-77
2022/05/16 11:52:25;;;;;;;11.18;4.50;;;24.60;99.90;;;;;;5051969;28;20409;-78
2022/05/16 12:00:58;;;;;;;10.82;4.20;;;24.30;99.90;;;;;;5050211;28;20421;-78
2022/05/16 12:03:39;;;;;;;10.93;3.92;;;24.30;99.90;;;;;;5051407;28;20515;-78
2022/05/16 12:06:35;;;;;;;9.73;3.97;;;24.10;99.90;;;;;;5051943;28;20421;-79
2022/05/16 12:09:24;;;;;;;9.40;3.85;;;23.90;99.90;;;;;;5034442;28;20496;-78
2022/05/16 12:12:02;;;;;;;11.30;4.10;;;24.30;99.90;;;;;;5047106;28;20890;-79
2022/05/16 12:14:37;;;;;;;7.28;3.67;;;24.40;99.90;;;;;;5034345;28;20426;-79
2022/05/16 12:17:15;;;;;;;7.57;3.50;;;24.60;99.90;;;;;;5049421;28;20417;-79
2022/05/16 12:19:43;;;;;;;9.68;4.10;;;24.70;99.90;;;;;;5039387;28;20417;-79
2022/05/16 12:22:36;;;;;;;9.32;4.07;;;25.10;99.90;;;;;;5033905;28;20921;-79
2022/05/16 12:25:08;;;;;;;10.45;4.47;;;25.60;99.90;;;;;;5050268;28;20421;-79
2022/05/16 12:27:45;;;;;;;10.90;4.87;;;25.70;99.90;;;;;;5031938;28;20406;-79
2022/05/16 12:30:15;;;;;;;11.40;4.80;;;25.80;99.90;;;;;;5051047;28;20483;-78
2022/05/16 12:32:51;;;;;;;14.77;4.85;;;25.90;99.90;;;;;;5050146;28;20413;-78
2022/05/16 12:35:35;;;;;;;8.02;4.30;;;25.00;99.90;;;;;;5034134;28;20425;-79
2022/05/16 12:38:01;;;;;;;10.00;4.40;;;25.40;99.90;;;;;;5029552;28;20481;-78
2022/05/16 12:40:58;;;;;;;11.68;4.80;;;25.60;99.90;;;;;;5034741;28;20428;-78
2022/05/16 12:43:32;;;;;;;11.95;5.15;;;25.50;99.90;;;;;;5031322;28;20421;-78
2022/05/16 12:46:18;;;;;;;11.65;4.93;;;25.10;99.90;;;;;;5048168;28;20504;-78
2022/05/16 12:49:23;;;;;;;10.98;4.93;;;25.30;99.90;;;;;;5023703;28;20990;-78
2022/05/16 12:51:59;;;;;;;10.45;5.20;;;25.60;99.90;;;;;;5048825;28;20762;-78
2022/05/16 12:54:43;;;;;;;10.30;5.03;;;25.40;99.90;;;;;;5051865;28;20788;-78
2022/05/16 12:57:21;;;;;;;14.13;5.10;;;25.70;99.90;;;;;;5024089;28;20425;-79
2022/05/16 13:00:17;;;;;;;13.35;5.38;;;26.10;99.90;;;;;;5038742;28;20423;-79
2022/05/16 13:02:55;;;;;;;10.75;5.47;;;26.30;99.90;;;;;;5036904;28;20442;-78
2022/05/16 13:05:45;;;;;;;12.00;5.35;;;26.30;99.90;;;;;;5039896;28;21122;-79
2022/05/16 13:08:23;;;;;;;9.90;4.72;;;26.50;99.90;;;;;;5052269;28;20416;-79
2022/05/16 13:10:52;;;;;;;10.48;5.00;;;26.50;99.90;;;;;;5052840;28;20434;-78
2022/05/16 13:13:37;;;;;;;13.05;5.05;;;26.50;99.90;;;;;;5050393;28;20429;-78
2022/05/16 13:16:17;;;;;;;11.52;5.30;;;26.30;99.90;;;;;;5038559;28;20434;-81
2022/05/16 13:18:53;;;;;;;11.30;5.88;;;26.00;99.90;;;;;;5051268;28;20433;-79
2022/05/16 13:21:20;;;;;;;10.88;5.60;;;25.90;99.90;;;;;;5030495;28;20513;-79
2022/05/16 13:23:47;;;;;;;10.95;5.57;;;26.00;99.90;;;;;;5049616;28;20425;-79
2022/05/16 13:31:48;;;;;;;9.43;6.18;;;25.30;99.90;;;;;;5050167;28;20421;-79
2022/05/16 13:34:38;;;;;;;11.15;6.10;;;25.10;99.90;;;;;;5037899;28;20876;-79
2022/05/16 13:37:08;;;;;;;13.45;6.32;;;25.30;99.90;;;;;;5016619;28;20430;-79
2022/05/16 13:39:38;;;;;;;10.88;5.82;;;25.20;99.90;;;;;;5018999;28;20429;-79
2022/05/16 13:42:04;;;;;;;12.57;7.35;;;25.50;99.90;;;;;;5036741;28;20432;-78
2022/05/16 13:44:41;;;;;;;10.43;6.65;;;25.70;99.90;;;;;;5039766;28;20504;-77
2022/05/16 13:47:12;;;;;;;14.98;7.18;;;25.70;99.90;;;;;;5044408;28;20427;-79
2022/05/16 13:49:40;;;;;;;10.63;6.05;;;25.70;99.90;;;;;;5043327;28;20432;-77
2022/05/16 13:52:24;;;;;;;12.03;6.90;;;25.60;99.90;;;;;;5036709;28;20409;-79
2022/05/16 13:54:52;;;;;;;14.52;9.45;;;25.90;99.90;;;;;;5049041;28;20428;-79
2022/05/16 13:57:23;;;;;;;11.32;8.23;;;25.90;99.90;;;;;;5034915;28;20494;-79
2022/05/16 14:00:14;;;;;;;13.85;9.82;;;26.10;99.90;;;;;;5043555;28;20437;-78
2022/05/16 14:02:46;;;;;;;14.55;9.68;;;26.10;99.90;;;;;;5034430;28;20433;-79
2022/05/16 14:05:31;;;;;;;13.15;9.45;;;26.20;99.90;;;;;;5053726;28;20426;-79
2022/05/16 14:07:58;;;;;;;14.05;9.82;;;26.10;99.90;;;;;;5052806;28;20515;-80
2022/05/16 14:10:28;;;;;;;17.27;9.98;;;26.00;99.90;;;;;;5050314;28;20429;-77
2022/05/16 14:13:06;;;;;;;15.30;10.20;;;26.00;99.90;;;;;;5045154;28;20422;-75
2022/05/16 14:15:39;;;;;;;15.13;10.07;;;26.00;99.90;;;;;;5046490;28;20429;-78
2022/05/16 14:18:16;;;;;;;15.43;10.70;;;26.10;99.90;;;;;;5048538;28;20425;-83